Time;durP1;ratioP1;P1;durP2;ratioP2;P2;SDS_P1;SDS_P2;PMS_P1;PMS_P2;Temp;Humidity;BMP_temperature;BMP_pressure;BME280_temperature;BME280_humidity;BME280_pressure;Samples;Min_cycle;Max_cycle;Signal;HPM_P1;HPM_P2
2023/04/10 00:00:05;;;;;;;23.67;19.05;;;;;;;;;;4882857;28;99583;-75
2023/04/10 00:02:32;;;;;;;25.02;17.95;;;;;;;;;;4887435;28;100068;-75
2023/04/10 00:04:58;;;;;;;23.40;18.05;;;;;;;;;;4892268;28;100208;-75
2023/04/10 00:07:26;;;;;;;21.45;16.35;;;;;;;;;;4888647;28;99949;-75
2023/04/10 00:09:52;;;;;;;20.05;17.05;;;;;;;;;;4887742;28;100418;-75
2023/04/10 00:12:19;;;;;;;20.73;17.38;;;;;;;;;;4888220;28;100854;-75
2023/04/10 00:14:45;;;;;;;20.02;17.23;;;;;;;;;;4888844;28;99941;-75
2023/04/10 00:17:12;;;;;;;19.15;15.98;;;;;;;;;;4888593;28;99413;-75
2023/04/10 00:19:38;;;;;;;27.25;17.17;;;;;;;;;;4888975;28;100253;-75
2023/04/10 00:22:05;;;;;;;20.73;16.48;;;;;;;;;;4889067;28;100007;-75
2023/04/10 00:24:31;;;;;;;21.52;17.13;;;;;;;;;;4889646;28;99938;-76
2023/04/10 00:26:57;;;;;;;16.77;14.93;;;;;;;;;;4893847;28;99507;-77
2023/04/10 00:29:24;;;;;;;19.20;16.60;;;;;;;;;;4888948;28;99965;-75
2023/04/10 00:31:50;;;;;;;22.13;14.98;;;;;;;;;;4888097;28;99022;-75
2023/04/10 00:34:16;;;;;;;18.08;15.65;;;;;;;;;;4887774;28;99234;-75
2023/04/10 00:36:44;;;;;;;19.05;15.95;;;;;;;;;;4888109;28;99746;-74
2023/04/10 00:39:11;;;;;;;18.55;15.25;;;;;;;;;;4887806;28;99676;-75
2023/04/10 00:41:38;;;;;;;21.70;15.60;;;;;;;;;;4887903;28;100072;-75
2023/04/10 00:44:05;;;;;;;19.98;15.88;;;;;;;;;;4902860;28;101213;-75
2023/04/10 00:46:31;;;;;;;16.10;14.40;;;;;;;;;;4888565;28;99046;-75
2023/04/10 00:48:58;;;;;;;20.45;14.80;;;;;;;;;;4894851;28;98745;-75
2023/04/10 00:51:25;;;;;;;18.00;14.18;;;;;;;;;;4890993;28;99556;-76
2023/04/10 00:53:53;;;;;;;18.15;14.63;;;;;;;;;;4890943;28;99007;-75
2023/04/10 00:56:20;;;;;;;16.20;14.00;;;;;;;;;;4891315;28;99330;-75
2023/04/10 00:58:46;;;;;;;19.70;14.75;;;;;;;;;;4890838;28;98593;-75
2023/04/10 01:01:13;;;;;;;16.55;14.73;;;;;;;;;;4890927;28;100157;-75
2023/04/10 01:03:40;;;;;;;15.45;13.73;;;;;;;;;;4905468;28;101779;-75
2023/04/10 01:06:25;;;;;;;15.77;14.15;;;;;;;;;;4889174;28;101119;-74
2023/04/10 01:09:13;;;;;;;18.35;13.82;;;;;;;;;;4891408;28;98908;-74
2023/04/10 01:11:52;;;;;;;15.15;13.13;;;;;;;;;;4894350;28;98919;-74
2023/04/10 01:14:19;;;;;;;19.83;12.27;;;;;;;;;;4890329;28;99950;-74
2023/04/10 01:16:50;;;;;;;15.57;13.15;;;;;;;;;;4891316;28;99934;-74
2023/04/10 01:19:44;;;;;;;15.05;12.88;;;;;;;;;;4891249;28;99546;-74
2023/04/10 01:22:12;;;;;;;14.27;12.15;;;;;;;;;;4890382;28;100210;-73
2023/04/10 01:24:47;;;;;;;13.98;12.18;;;;;;;;;;4881452;28;99094;-74
2023/04/10 01:27:14;;;;;;;14.20;12.70;;;;;;;;;;4888474;28;101723;-74
2023/04/10 01:29:44;;;;;;;14.35;12.45;;;;;;;;;;4890114;28;101746;-75
2023/04/10 01:32:13;;;;;;;13.35;12.02;;;;;;;;;;4892119;28;100840;-74
2023/04/10 01:34:44;;;;;;;13.80;12.30;;;;;;;;;;4907570;28;100748;-74
2023/04/10 01:37:22;;;;;;;14.10;11.80;;;;;;;;;;4904436;28;101598;-74
2023/04/10 01:39:50;;;;;;;15.20;11.63;;;;;;;;;;4890756;28;99269;-74
2023/04/10 01:42:18;;;;;;;16.08;11.35;;;;;;;;;;4888100;28;101497;-74
2023/04/10 01:44:45;;;;;;;15.57;11.38;;;;;;;;;;4875475;28;98846;-74
2023/04/10 01:47:13;;;;;;;13.50;11.02;;;;;;;;;;4871759;28;99132;-74
2023/04/10 01:49:43;;;;;;;11.50;10.35;;;;;;;;;;4869627;28;100896;-73
2023/04/10 01:52:13;;;;;;;12.90;10.30;;;;;;;;;;4895794;28;101957;-74
2023/04/10 01:54:47;;;;;;;11.48;10.38;;;;;;;;;;4889198;28;101259;-74
2023/04/10 01:57:18;;;;;;;11.80;9.70;;;;;;;;;;4892278;28;100928;-74
2023/04/10 01:59:54;;;;;;;11.18;9.98;;;;;;;;;;4889669;28;100867;-74
2023/04/10 02:02:20;;;;;;;10.52;9.43;;;;;;;;;;4888376;28;101729;-74
2023/04/10 02:04:50;;;;;;;10.88;9.77;;;;;;;;;;4889103;28;101012;-74
2023/04/10 02:07:17;;;;;;;11.00;9.95;;;;;;;;;;4890212;28;99247;-74
2023/04/10 02:09:43;;;;;;;10.48;9.48;;;;;;;;;;4888877;28;101078;-74
2023/04/10 02:12:15;;;;;;;10.70;9.77;;;;;;;;;;4888564;28;100894;-75
2023/04/10 02:14:45;;;;;;;10.05;9.07;;;;;;;;;;4889041;28;101858;-75
2023/04/10 02:17:13;;;;;;;10.32;9.30;;;;;;;;;;4892620;28;99269;-75
2023/04/10 02:19:40;;;;;;;10.10;8.95;;;;;;;;;;4890181;28;99305;-75
2023/04/10 02:22:07;;;;;;;12.43;8.73;;;;;;;;;;4885218;28;102054;-75
2023/04/10 02:24:34;;;;;;;10.10;9.10;;;;;;;;;;4870125;28;98923;-75
2023/04/10 02:27:00;;;;;;;10.40;9.43;;;;;;;;;;4870008;28;99498;-75
2023/04/10 02:29:27;;;;;;;10.13;9.13;;;;;;;;;;4870852;28;99096;-74
2023/04/10 02:31:53;;;;;;;9.57;8.68;;;;;;;;;;4874125;28;98992;-75
2023/04/10 02:34:19;;;;;;;10.63;8.93;;;;;;;;;;4890182;28;99465;-75
2023/04/10 02:36:46;;;;;;;10.93;9.82;;;;;;;;;;4889966;28;100221;-75
2023/04/10 02:39:12;;;;;;;9.85;9.00;;;;;;;;;;4891735;28;98718;-75
2023/04/10 02:41:50;;;;;;;10.48;9.35;;;;;;;;;;4888292;28;101820;-75
2023/04/10 02:44:16;;;;;;;10.40;9.30;;;;;;;;;;4887599;28;102024;-75
2023/04/10 02:46:43;;;;;;;9.55;8.75;;;;;;;;;;4888446;28;101947;-75
2023/04/10 02:49:11;;;;;;;9.88;8.88;;;;;;;;;;4888370;28;101132;-75
2023/04/10 02:51:37;;;;;;;9.55;8.63;;;;;;;;;;4889010;28;98753;-75
2023/04/10 02:54:04;;;;;;;10.27;8.98;;;;;;;;;;4874817;28;101990;-75
2023/04/10 02:56:34;;;;;;;10.18;9.07;;;;;;;;;;4885083;28;101301;-75
2023/04/10 02:59:01;;;;;;;9.93;8.93;;;;;;;;;;4871406;28;98712;-74
2023/04/10 03:01:29;;;;;;;9.50;8.70;;;;;;;;;;4892564;28;99207;-74
2023/04/10 03:03:56;;;;;;;11.10;8.48;;;;;;;;;;4904470;28;100907;-75
2023/04/10 03:06:27;;;;;;;10.48;9.07;;;;;;;;;;4886428;28;101296;-75
2023/04/10 03:08:55;;;;;;;10.00;8.77;;;;;;;;;;4887750;28;101352;-75
2023/04/10 03:11:22;;;;;;;9.35;8.55;;;;;;;;;;4889086;28;98841;-74
2023/04/10 03:13:48;;;;;;;9.75;8.85;;;;;;;;;;4888984;28;99349;-75
2023/04/10 03:16:17;;;;;;;10.52;9.55;;;;;;;;;;4889812;28;99702;-75
2023/04/10 03:18:44;;;;;;;9.55;8.65;;;;;;;;;;4887685;28;101234;-75
2023/04/10 03:21:11;;;;;;;9.90;8.80;;;;;;;;;;4887350;28;101057;-75
2023/04/10 03:23:37;;;;;;;10.02;9.13;;;;;;;;;;4892633;28;98814;-75
2023/04/10 03:26:04;;;;;;;11.23;10.10;;;;;;;;;;4887998;28;100659;-75
2023/04/10 03:28:35;;;;;;;10.30;9.27;;;;;;;;;;4887899;28;100919;-74
2023/04/10 03:31:03;;;;;;;10.38;9.43;;;;;;;;;;4887587;28;101405;-75
2023/04/10 03:33:32;;;;;;;11.30;9.20;;;;;;;;;;4886817;28;102216;-75
2023/04/10 03:35:59;;;;;;;9.57;8.60;;;;;;;;;;4889143;28;99431;-75
2023/04/10 03:38:26;;;;;;;9.57;8.63;;;;;;;;;;4888267;28;99518;-75
2023/04/10 03:40:52;;;;;;;10.85;9.23;;;;;;;;;;4886881;28;102073;-75
2023/04/10 03:43:21;;;;;;;10.38;9.27;;;;;;;;;;4887552;28;101581;-75
2023/04/10 03:45:47;;;;;;;11.32;8.95;;;;;;;;;;4890638;28;100773;-75
2023/04/10 03:48:15;;;;;;;9.63;8.73;;;;;;;;;;4888782;28;98938;-75
2023/04/10 03:50:45;;;;;;;10.13;9.18;;;;;;;;;;4887666;28;100409;-74
2023/04/10 03:53:11;;;;;;;9.68;8.80;;;;;;;;;;4881826;28;99494;-74
2023/04/10 03:55:37;;;;;;;9.40;8.50;;;;;;;;;;4882977;28;100951;-74
2023/04/10 03:58:04;;;;;;;11.93;9.95;;;;;;;;;;4882692;28;99669;-74
2023/04/10 04:00:31;;;;;;;10.20;9.30;;;;;;;;;;4887035;28;101419;-74
2023/04/10 04:03:19;;;;;;;10.07;9.10;;;;;;;;;;4886868;28;102091;-74
2023/04/10 04:05:51;;;;;;;;;;;;;;;;;;4888426;28;98741;-74
2023/04/10 04:08:44;;;;;;;11.70;8.77;;;;;;;;;;4891027;28;98979;-74
2023/04/10 04:11:13;;;;;;;12.43;8.85;;;;;;;;;;4889023;28;98733;-74
2023/04/10 04:13:58;;;;;;;10.07;8.60;;;;;;;;;;4886616;28;98118;-74
2023/04/10 04:16:41;;;;;;;10.88;9.35;;;;;;;;;;4886894;28;101503;-74
2023/04/10 04:19:20;;;;;;;9.55;8.55;;;;;;;;;;4887006;28;101557;-74
2023/04/10 04:22:10;;;;;;;9.23;8.38;;;;;;;;;;4890976;28;102371;-74
2023/04/10 04:24:54;;;;;;;10.48;8.98;;;;;;;;;;4893796;28;99662;-73
2023/04/10 04:27:31;;;;;;;11.30;10.13;;;;;;;;;;4893229;28;101183;-75
2023/04/10 04:30:14;;;;;;;9.80;8.90;;;;;;;;;;4911687;28;101082;-74
2023/04/10 04:32:45;;;;;;;9.75;8.60;;;;;;;;;;4893255;28;101318;-74
2023/04/10 04:35:25;;;;;;;10.00;8.98;;;;;;;;;;4893913;28;99605;-74
2023/04/10 04:38:15;;;;;;;10.20;9.20;;;;;;;;;;4908618;28;101656;-73
2023/04/10 04:41:15;;;;;;;10.20;9.25;;;;;;;;;;4863740;28;98641;-74
2023/04/10 04:44:04;;;;;;;9.93;8.93;;;;;;;;;;4873257;28;99455;-74
2023/04/10 04:46:49;;;;;;;11.40;10.30;;;;;;;;;;4873898;28;99123;-74
2023/04/10 04:49:34;;;;;;;11.18;10.07;;;;;;;;;;4890384;28;99222;-74
2023/04/10 04:52:24;;;;;;;12.27;10.38;;;;;;;;;;4873312;28;98958;-74
2023/04/10 04:55:05;;;;;;;9.80;8.90;;;;;;;;;;4896264;28;101316;-73
2023/04/10 04:57:52;;;;;;;10.13;9.18;;;;;;;;;;4893642;28;100353;-73
2023/04/10 05:00:41;;;;;;;10.82;9.70;;;;;;;;;;4891043;28;98905;-75
2023/04/10 05:03:43;;;;;;;12.85;9.73;;;;;;;;;;4893516;28;98665;-73
2023/04/10 05:06:41;;;;;;;12.10;10.63;;;;;;;;;;4873045;28;99533;-74
2023/04/10 05:09:16;;;;;;;11.40;10.30;;;;;;;;;;4886564;28;100058;-75
2023/04/10 05:12:02;;;;;;;11.23;10.05;;;;;;;;;;4891978;28;98670;-74
2023/04/10 05:14:56;;;;;;;11.43;9.90;;;;;;;;;;4881599;28;100235;-74
2023/04/10 05:17:41;;;;;;;11.07;10.07;;;;;;;;;;4892357;28;101387;-74
2023/04/10 05:20:26;;;;;;;10.48;9.48;;;;;;;;;;4893840;28;99244;-74
2023/04/10 05:23:03;;;;;;;9.82;8.77;;;;;;;;;;4894114;28;99316;-74
2023/04/10 05:25:45;;;;;;;11.68;10.50;;;;;;;;;;4892150;28;99223;-74
2023/04/10 05:28:29;;;;;;;11.98;9.52;;;;;;;;;;4894011;28;99050;-74
2023/04/10 05:31:13;;;;;;;12.50;11.15;;;;;;;;;;4892851;28;99793;-74
2023/04/10 05:33:50;;;;;;;11.13;10.00;;;;;;;;;;4888908;28;101685;-75
2023/04/10 05:36:22;;;;;;;10.70;9.60;;;;;;;;;;4888464;28;98239;-75
2023/04/10 05:39:00;;;;;;;10.52;9.52;;;;;;;;;;4888882;28;100820;-74
2023/04/10 05:41:44;;;;;;;10.65;9.68;;;;;;;;;;4887412;28;99069;-74
2023/04/10 05:44:20;;;;;;;10.02;8.98;;;;;;;;;;4892002;28;102061;-74
2023/04/10 05:46:55;;;;;;;11.23;10.05;;;;;;;;;;4890246;28;99438;-75
2023/04/10 05:49:21;;;;;;;10.48;9.48;;;;;;;;;;4890776;28;99106;-74
2023/04/10 05:52:07;;;;;;;11.88;10.68;;;;;;;;;;4889334;28;98530;-75
2023/04/10 05:54:54;;;;;;;10.52;9.27;;;;;;;;;;4849994;28;98834;-73
2023/04/10 05:57:32;;;;;;;12.05;9.07;;;;;;;;;;4888987;28;102005;-74
2023/04/10 06:00:20;;;;;;;10.52;9.63;;;;;;;;;;4889056;28;101023;-74
2023/04/10 06:03:07;;;;;;;13.32;9.20;;;;;;;;;;4890238;28;99575;-74
2023/04/10 06:05:43;;;;;;;10.02;9.02;;;;;;;;;;4889164;28;101599;-73
2023/04/10 06:08:10;;;;;;;9.93;8.93;;;;;;;;;;4891434;28;100948;-75
2023/04/10 06:10:37;;;;;;;10.27;9.30;;;;;;;;;;4888501;28;99347;-74
2023/04/10 06:13:03;;;;;;;10.95;9.95;;;;;;;;;;4890429;28;99082;-74
2023/04/10 06:15:30;;;;;;;11.38;9.07;;;;;;;;;;4889780;28;99254;-74
2023/04/10 06:17:56;;;;;;;11.07;9.95;;;;;;;;;;4899491;28;100477;-74
2023/04/10 06:20:23;;;;;;;9.60;8.70;;;;;;;;;;4888206;28;100223;-74
2023/04/10 06:22:50;;;;;;;8.63;7.82;;;;;;;;;;4904286;28;100885;-74
2023/04/10 06:25:16;;;;;;;10.18;9.20;;;;;;;;;;4887957;28;102178;-75
2023/04/10 06:27:43;;;;;;;10.73;9.65;;;;;;;;;;4889447;28;100065;-75
2023/04/10 06:30:10;;;;;;;10.30;9.30;;;;;;;;;;4892127;28;100784;-75
2023/04/10 06:32:36;;;;;;;10.57;9.52;;;;;;;;;;4888087;28;99514;-74
2023/04/10 06:35:04;;;;;;;10.77;9.68;;;;;;;;;;4885260;28;100723;-75
2023/04/10 06:37:31;;;;;;;9.48;8.63;;;;;;;;;;4881223;28;99493;-74
2023/04/10 06:40:04;;;;;;;11.23;9.15;;;;;;;;;;4892113;28;100322;-75
2023/04/10 06:42:30;;;;;;;11.93;9.63;;;;;;;;;;4889690;28;98859;-74
2023/04/10 06:45:07;;;;;;;10.07;9.00;;;;;;;;;;4887357;28;101660;-74
2023/04/10 06:47:33;;;;;;;9.80;8.98;;;;;;;;;;4888543;28;99851;-74
2023/04/10 06:50:00;;;;;;;10.15;9.20;;;;;;;;;;4891072;28;99863;-73
2023/04/10 06:52:26;;;;;;;10.45;9.38;;;;;;;;;;4882013;28;99670;-74
2023/04/10 06:54:53;;;;;;;10.35;9.45;;;;;;;;;;4886323;28;99356;-74
2023/04/10 06:57:19;;;;;;;12.95;9.68;;;;;;;;;;4878544;28;99378;-74
2023/04/10 06:59:45;;;;;;;10.70;9.63;;;;;;;;;;4870191;28;99506;-74
2023/04/10 07:02:12;;;;;;;9.70;8.80;;;;;;;;;;4888988;28;101992;-75
2023/04/10 07:04:38;;;;;;;10.60;9.50;;;;;;;;;;4894991;28;100414;-73
2023/04/10 07:07:08;;;;;;;11.13;9.32;;;;;;;;;;4889416;28;100250;-74
2023/04/10 07:09:35;;;;;;;22.52;9.07;;;;;;;;;;4882884;28;100069;-74
2023/04/10 07:12:01;;;;;;;9.52;8.63;;;;;;;;;;4891834;28;99191;-75
2023/04/10 07:14:28;;;;;;;9.82;8.82;;;;;;;;;;4886109;28;100253;-74
2023/04/10 07:16:54;;;;;;;10.07;9.13;;;;;;;;;;4889036;28;99119;-75
2023/04/10 07:19:20;;;;;;;9.90;8.95;;;;;;;;;;4887601;28;100312;-76
2023/04/10 07:21:49;;;;;;;10.82;8.75;;;;;;;;;;4887339;28;100466;-73
2023/04/10 07:24:16;;;;;;;11.27;7.97;;;;;;;;;;4886977;28;100567;-78
2023/04/10 07:26:43;;;;;;;9.77;8.98;;;;;;;;;;4886104;28;99620;-74
2023/04/10 07:29:10;;;;;;;11.20;8.27;;;;;;;;;;4889402;28;99941;-73
2023/04/10 07:31:36;;;;;;;9.88;8.88;;;;;;;;;;4888806;28;100585;-73
2023/04/10 07:34:03;;;;;;;9.15;8.35;;;;;;;;;;4904998;28;99030;-74
2023/04/10 07:36:30;;;;;;;13.00;7.97;;;;;;;;;;4888965;28;100180;-74
2023/04/10 07:38:57;;;;;;;13.82;7.80;;;;;;;;;;4889072;28;100328;-74
2023/04/10 07:41:23;;;;;;;10.93;7.80;;;;;;;;;;4885955;28;99279;-74
2023/04/10 07:43:49;;;;;;;8.60;7.90;;;;;;;;;;4887065;28;99224;-74
2023/04/10 07:46:16;;;;;;;7.93;7.22;;;;;;;;;;4869588;28;99965;-75
2023/04/10 07:48:43;;;;;;;8.43;7.70;;;;;;;;;;4878857;28;100011;-75
2023/04/10 07:51:09;;;;;;;8.23;7.53;;;;;;;;;;4888101;28;100440;-76
2023/04/10 07:53:36;;;;;;;8.15;7.45;;;;;;;;;;4887174;28;100235;-75
2023/04/10 07:56:03;;;;;;;16.10;6.93;;;;;;;;;;4891797;28;99565;-74
2023/04/10 07:58:30;;;;;;;11.27;8.40;;;;;;;;;;4894256;28;100259;-75
2023/04/10 08:00:57;;;;;;;9.70;7.60;;;;;;;;;;4892956;28;99636;-74
2023/04/10 08:03:23;;;;;;;8.30;7.53;;;;;;;;;;4892173;28;99362;-74
2023/04/10 08:05:50;;;;;;;8.10;7.30;;;;;;;;;;4889306;28;100043;-75
2023/04/10 08:08:18;;;;;;;8.40;7.70;;;;;;;;;;4887854;28;99057;-75
2023/04/10 08:10:44;;;;;;;9.32;8.43;;;;;;;;;;4888001;28;100654;-75
2023/04/10 08:13:12;;;;;;;9.85;8.85;;;;;;;;;;4888061;28;99853;-75
2023/04/10 08:15:38;;;;;;;9.85;8.95;;;;;;;;;;4887207;28;100816;-75
2023/04/10 08:18:04;;;;;;;12.52;8.57;;;;;;;;;;4889582;28;99707;-75
2023/04/10 08:20:35;;;;;;;8.95;8.10;;;;;;;;;;4887720;28;99030;-75
2023/04/10 08:23:03;;;;;;;9.38;8.45;;;;;;;;;;4887559;28;99487;-76
2023/04/10 08:25:45;;;;;;;8.40;7.50;;;;;;;;;;4888625;28;100151;-75
2023/04/10 08:28:11;;;;;;;8.57;7.88;;;;;;;;;;4889324;28;99980;-75
2023/04/10 08:30:38;;;;;;;8.23;7.53;;;;;;;;;;4887913;28;99895;-76
2023/04/10 08:33:04;;;;;;;8.57;7.78;;;;;;;;;;4888594;28;99903;-75
2023/04/10 08:35:31;;;;;;;9.48;8.50;;;;;;;;;;4888041;28;99842;-75
2023/04/10 08:37:57;;;;;;;8.98;8.20;;;;;;;;;;4887694;28;100758;-75
2023/04/10 08:40:38;;;;;;;12.90;7.88;;;;;;;;;;4890546;28;98507;-75
2023/04/10 08:43:04;;;;;;;16.75;7.68;;;;;;;;;;4887312;28;100408;-76
2023/04/10 08:45:31;;;;;;;11.02;8.55;;;;;;;;;;4887517;28;99993;-75
2023/04/10 08:48:00;;;;;;;10.88;8.32;;;;;;;;;;4887424;28;99979;-75
2023/04/10 08:50:28;;;;;;;8.77;7.88;;;;;;;;;;4887028;28;99238;-74
2023/04/10 08:52:55;;;;;;;8.77;7.97;;;;;;;;;;4887461;28;99126;-73
2023/04/10 08:55:22;;;;;;;10.50;8.68;;;;;;;;;;4887170;28;99194;-74
2023/04/10 08:57:49;;;;;;;9.82;8.85;;;;;;;;;;4886429;28;99558;-75
2023/04/10 09:00:27;;;;;;;9.23;8.52;;;;;;;;;;4887930;28;98986;-75
2023/04/10 09:02:56;;;;;;;9.63;8.73;;;;;;;;;;4881546;28;100110;-76
2023/04/10 09:05:25;;;;;;;8.18;7.38;;;;;;;;;;4878900;28;99982;-76
2023/04/10 09:07:51;;;;;;;9.52;8.75;;;;;;;;;;4870388;28;99883;-74
2023/04/10 09:10:18;;;;;;;11.77;9.07;;;;;;;;;;4885529;28;99511;-74
2023/04/10 09:12:46;;;;;;;9.82;9.00;;;;;;;;;;4889200;28;101746;-74
2023/04/10 09:15:12;;;;;;;9.80;8.70;;;;;;;;;;4891293;28;99015;-74
2023/04/10 09:17:58;;;;;;;9.02;8.30;;;;;;;;;;4890576;28;99401;-74
2023/04/10 09:20:25;;;;;;;19.50;9.55;;;;;;;;;;4890891;28;99871;-74
2023/04/10 09:22:52;;;;;;;10.05;9.13;;;;;;;;;;4894246;28;98700;-74
2023/04/10 09:25:29;;;;;;;9.90;8.90;;;;;;;;;;4888772;28;100601;-74
2023/04/10 09:28:02;;;;;;;8.25;7.55;;;;;;;;;;4889917;28;99414;-74
2023/04/10 09:30:39;;;;;;;10.82;8.90;;;;;;;;;;4890384;28;99508;-75
2023/04/10 09:33:22;;;;;;;9.63;8.73;;;;;;;;;;4870146;28;100866;-74
2023/04/10 09:35:48;;;;;;;;;;;;;;;;;;4882747;28;99907;-75
2023/04/10 09:38:19;;;;;;;8.75;7.95;;;;;;;;;;4885264;28;130765;-74
2023/04/10 09:40:46;;;;;;;9.13;8.32;;;;;;;;;;4889665;28;99880;-74
2023/04/10 09:43:19;;;;;;;9.52;7.57;;;;;;;;;;4890689;28;100247;-74
2023/04/10 09:45:49;;;;;;;9.25;8.02;;;;;;;;;;4894528;28;98911;-74
2023/04/10 09:48:16;;;;;;;9.77;8.73;;;;;;;;;;4889655;28;99690;-75
2023/04/10 09:50:43;;;;;;;9.77;8.80;;;;;;;;;;4888932;28;100296;-75
2023/04/10 09:53:11;;;;;;;9.40;8.50;;;;;;;;;;4885929;28;99298;-74
2023/04/10 09:55:38;;;;;;;9.45;8.55;;;;;;;;;;4885664;28;99802;-74
2023/04/10 09:58:05;;;;;;;8.90;8.07;;;;;;;;;;4886614;28;100078;-74
2023/04/10 10:00:38;;;;;;;9.32;8.43;;;;;;;;;;4885851;28;102273;-75
2023/04/10 10:03:06;;;;;;;8.98;8.20;;;;;;;;;;4887886;28;100260;-75
2023/04/10 10:05:35;;;;;;;8.70;7.90;;;;;;;;;;4889895;28;100437;-79
2023/04/10 10:08:01;;;;;;;10.52;8.25;;;;;;;;;;4874864;28;100245;-79
2023/04/10 10:10:28;;;;;;;8.85;7.95;;;;;;;;;;4879569;28;98463;-80
2023/04/10 10:12:56;;;;;;;7.93;7.32;;;;;;;;;;4890137;28;99082;-78
2023/04/10 10:15:25;;;;;;;9.02;8.23;;;;;;;;;;4889072;28;100616;-81
2023/04/10 10:17:59;;;;;;;8.75;7.95;;;;;;;;;;4891713;28;100878;-81
2023/04/10 10:20:27;;;;;;;9.05;8.20;;;;;;;;;;4890464;28;99954;-81
2023/04/10 10:22:53;;;;;;;8.93;8.23;;;;;;;;;;4889978;28;99137;-80
2023/04/10 10:25:20;;;;;;;8.25;7.55;;;;;;;;;;4890949;28;99696;-79
2023/04/10 10:27:48;;;;;;;9.10;8.30;;;;;;;;;;4890648;28;100059;-80
2023/04/10 10:30:16;;;;;;;8.18;7.47;;;;;;;;;;4894322;28;98537;-80
2023/04/10 10:32:57;;;;;;;8.73;8.05;;;;;;;;;;4891092;28;99645;-80
2023/04/10 10:35:25;;;;;;;8.73;7.82;;;;;;;;;;4890260;28;99914;-80
2023/04/10 10:37:55;;;;;;;8.88;8.10;;;;;;;;;;4891734;28;99138;-79
2023/04/10 10:40:31;;;;;;;8.43;7.68;;;;;;;;;;4890492;28;99104;-80
2023/04/10 10:43:07;;;;;;;9.05;8.32;;;;;;;;;;4886725;28;99781;-80
2023/04/10 10:45:36;;;;;;;8.45;7.65;;;;;;;;;;4889134;28;100398;-80
2023/04/10 10:48:03;;;;;;;8.70;7.90;;;;;;;;;;4889817;28;98901;-81
2023/04/10 10:50:48;;;;;;;9.15;8.00;;;;;;;;;;4894156;28;100107;-80
2023/04/10 10:53:37;;;;;;;8.10;7.50;;;;;;;;;;4890184;28;99371;-80
2023/04/10 10:56:17;;;;;;;16.05;7.53;;;;;;;;;;4889985;28;100100;-78
2023/04/10 10:58:47;;;;;;;8.38;7.57;;;;;;;;;;4887708;28;100413;-79
2023/04/10 11:01:14;;;;;;;8.68;7.82;;;;;;;;;;4890215;28;99974;-80
2023/04/10 11:03:43;;;;;;;8.30;7.60;;;;;;;;;;4889112;28;99011;-80
2023/04/10 11:06:11;;;;;;;7.60;6.90;;;;;;;;;;4882561;28;100578;-80
2023/04/10 11:08:42;;;;;;;8.77;7.13;;;;;;;;;;4887032;28;100075;-80
2023/04/10 11:11:23;;;;;;;6.53;6.10;;;;;;;;;;4889180;28;100649;-80
2023/04/10 11:13:52;;;;;;;6.82;6.22;;;;;;;;;;4891543;28;99811;-81
2023/04/10 11:16:19;;;;;;;6.47;6.07;;;;;;;;;;4888428;28;99918;-80
2023/04/10 11:18:45;;;;;;;10.52;6.85;;;;;;;;;;4888348;28;99305;-80
2023/04/10 11:21:22;;;;;;;6.07;5.47;;;;;;;;;;4884406;28;100105;-82
2023/04/10 11:23:48;;;;;;;7.97;6.85;;;;;;;;;;4885655;28;99898;-78
2023/04/10 11:26:35;;;;;;;11.88;6.85;;;;;;;;;;4873822;28;98968;-78
2023/04/10 11:29:03;;;;;;;9.30;6.60;;;;;;;;;;4887506;28;100096;-77
2023/04/10 11:31:30;;;;;;;6.75;5.97;;;;;;;;;;4886642;28;99639;-78
2023/04/10 11:33:57;;;;;;;6.43;5.65;;;;;;;;;;4887630;28;100225;-81
2023/04/10 11:36:24;;;;;;;6.22;5.82;;;;;;;;;;4892279;28;99847;-78
2023/04/10 11:39:01;;;;;;;7.68;7.03;;;;;;;;;;4887086;28;100763;-78
2023/04/10 11:41:29;;;;;;;7.75;7.13;;;;;;;;;;4890867;28;100176;-78
2023/04/10 11:43:56;;;;;;;7.63;7.00;;;;;;;;;;4891213;28;99882;-78
2023/04/10 11:46:22;;;;;;;6.65;6.15;;;;;;;;;;4885761;28;100258;-79
2023/04/10 11:48:53;;;;;;;7.22;6.53;;;;;;;;;;4887721;28;100160;-77
2023/04/10 11:51:20;;;;;;;8.00;7.30;;;;;;;;;;4886711;28;101432;-78
2023/04/10 11:53:47;;;;;;;6.70;6.20;;;;;;;;;;4887578;28;100270;-79
2023/04/10 11:56:22;;;;;;;7.20;6.65;;;;;;;;;;4888043;28;99985;-77
2023/04/10 11:58:51;;;;;;;7.43;6.82;;;;;;;;;;4890457;28;100209;-77
2023/04/10 12:01:19;;;;;;;7.07;6.47;;;;;;;;;;4886893;28;98671;-78
2023/04/10 12:03:46;;;;;;;6.45;5.90;;;;;;;;;;4886656;28;98993;-80
2023/04/10 12:06:13;;;;;;;6.60;5.93;;;;;;;;;;4884295;28;99822;-77
2023/04/10 12:08:41;;;;;;;8.00;6.50;;;;;;;;;;4887417;28;99955;-78
2023/04/10 12:11:09;;;;;;;10.45;6.00;;;;;;;;;;4887693;28;99031;-77
2023/04/10 12:13:35;;;;;;;6.70;6.20;;;;;;;;;;4888404;28;99441;-78
2023/04/10 12:16:03;;;;;;;6.45;5.85;;;;;;;;;;4888428;28;99515;-77
2023/04/10 12:18:30;;;;;;;11.00;5.80;;;;;;;;;;4888195;28;99749;-77
2023/04/10 12:20:58;;;;;;;7.88;6.22;;;;;;;;;;4890071;28;100885;-77
2023/04/10 12:23:25;;;;;;;5.60;5.20;;;;;;;;;;4886506;28;100058;-77
2023/04/10 12:25:52;;;;;;;6.47;5.68;;;;;;;;;;4886745;28;99416;-77
2023/04/10 12:28:20;;;;;;;5.55;5.15;;;;;;;;;;4886609;28;98957;-77
2023/04/10 12:30:47;;;;;;;5.35;4.85;;;;;;;;;;4888458;28;99234;-78
2023/04/10 12:33:19;;;;;;;4.88;4.57;;;;;;;;;;4888382;28;99600;-77
2023/04/10 12:35:45;;;;;;;6.22;4.63;;;;;;;;;;4887559;28;99889;-79
2023/04/10 12:38:12;;;;;;;4.90;4.45;;;;;;;;;;4886096;28;98952;-78
2023/04/10 12:40:56;;;;;;;5.15;4.60;;;;;;;;;;4886755;28;98987;-78
2023/04/10 12:43:32;;;;;;;4.00;3.80;;;;;;;;;;4890764;28;99877;-79
2023/04/10 12:45:58;;;;;;;6.10;4.45;;;;;;;;;;4885627;28;100133;-79
2023/04/10 12:48:25;;;;;;;4.50;4.10;;;;;;;;;;4891325;28;99983;-78
2023/04/10 12:50:51;;;;;;;4.28;3.92;;;;;;;;;;4891181;28;99653;-78
2023/04/10 12:53:18;;;;;;;4.63;4.28;;;;;;;;;;4891843;28;100394;-78
2023/04/10 12:55:58;;;;;;;4.18;3.83;;;;;;;;;;4889949;28;100955;-78
2023/04/10 12:58:27;;;;;;;6.45;3.67;;;;;;;;;;4879752;28;101153;-77
2023/04/10 13:00:55;;;;;;;4.35;4.05;;;;;;;;;;4889650;28;99645;-75
2023/04/10 13:03:21;;;;;;;5.60;4.00;;;;;;;;;;4891941;28;100385;-74
2023/04/10 13:05:50;;;;;;;4.10;3.75;;;;;;;;;;4885643;28;100447;-75
2023/04/10 13:08:17;;;;;;;4.60;4.30;;;;;;;;;;4886825;28;98580;-73
2023/04/10 13:10:44;;;;;;;4.15;3.80;;;;;;;;;;4889363;28;99878;-75
2023/04/10 13:13:11;;;;;;;3.92;3.72;;;;;;;;;;4888731;28;101201;-77
2023/04/10 13:15:38;;;;;;;4.32;3.80;;;;;;;;;;4890726;28;100137;-75
2023/04/10 13:18:09;;;;;;;4.15;3.80;;;;;;;;;;4889221;28;99880;-72
2023/04/10 13:20:39;;;;;;;3.70;3.17;;;;;;;;;;4887252;28;100343;-74
2023/04/10 13:23:06;;;;;;;3.90;3.60;;;;;;;;;;4889610;28;99620;-76
2023/04/10 13:25:33;;;;;;;3.58;3.35;;;;;;;;;;4893106;28;99988;-74
2023/04/10 13:28:00;;;;;;;3.17;2.97;;;;;;;;;;4886072;28;100051;-75
2023/04/10 13:30:27;;;;;;;3.90;3.40;;;;;;;;;;4887540;28;98906;-75
2023/04/10 13:32:54;;;;;;;5.38;3.30;;;;;;;;;;4884859;28;99614;-76
2023/04/10 13:35:21;;;;;;;5.28;4.88;;;;;;;;;;4889957;28;100208;-75
2023/04/10 13:37:47;;;;;;;6.00;3.65;;;;;;;;;;4886748;28;100209;-76
2023/04/10 13:40:13;;;;;;;6.60;3.30;;;;;;;;;;4887623;28;100302;-78
2023/04/10 13:42:40;;;;;;;4.32;3.97;;;;;;;;;;4889392;28;98963;-77
2023/04/10 13:45:08;;;;;;;40.42;31.63;;;;;;;;;;4889346;28;100269;-77
2023/04/10 13:47:35;;;;;;;3.70;3.40;;;;;;;;;;4887120;28;100025;-77
2023/04/10 13:50:01;;;;;;;6.65;6.00;;;;;;;;;;4887931;28;99872;-75
2023/04/10 13:52:29;;;;;;;5.53;5.22;;;;;;;;;;4888975;28;99532;-77
2023/04/10 13:54:56;;;;;;;3.63;3.33;;;;;;;;;;4890172;28;99479;-79
2023/04/10 13:57:22;;;;;;;4.32;3.80;;;;;;;;;;4888953;28;99159;-80
2023/04/10 13:59:48;;;;;;;5.40;4.30;;;;;;;;;;4889891;28;100271;-78
2023/04/10 14:02:15;;;;;;;4.10;3.80;;;;;;;;;;4889820;28;99689;-77
2023/04/10 14:04:41;;;;;;;4.32;3.92;;;;;;;;;;4889178;28;100886;-77
2023/04/10 14:07:08;;;;;;;4.18;3.80;;;;;;;;;;4886051;28;99972;-77
2023/04/10 14:09:34;;;;;;;7.65;4.10;;;;;;;;;;4892145;28;99090;-77
2023/04/10 14:12:02;;;;;;;4.13;3.67;;;;;;;;;;4890250;28;99559;-76
2023/04/10 14:14:28;;;;;;;4.53;4.18;;;;;;;;;;4880820;28;99683;-79
2023/04/10 14:16:54;;;;;;;3.90;3.65;;;;;;;;;;4885547;28;100011;-79
2023/04/10 14:19:21;;;;;;;5.97;5.38;;;;;;;;;;4889653;28;99724;-84
2023/04/10 14:21:47;;;;;;;5.25;4.75;;;;;;;;;;4887820;28;99078;-75
2023/04/10 14:24:14;;;;;;;4.95;4.45;;;;;;;;;;4886968;28;100155;-77
2023/04/10 14:26:40;;;;;;;9.50;7.80;;;;;;;;;;4889535;28;100974;-82
2023/04/10 14:29:07;;;;;;;5.40;4.90;;;;;;;;;;4887968;28;99127;-80
2023/04/10 14:31:34;;;;;;;4.88;4.55;;;;;;;;;;4884361;28;100010;-79
2023/04/10 14:34:09;;;;;;;4.82;4.30;;;;;;;;;;4887131;28;100396;-80
2023/04/10 14:36:35;;;;;;;5.88;5.32;;;;;;;;;;4878562;28;99984;-78
2023/04/10 14:39:03;;;;;;;6.82;4.47;;;;;;;;;;4885678;28;99133;-78
2023/04/10 14:41:30;;;;;;;4.38;4.07;;;;;;;;;;4887364;28;99571;-76
2023/04/10 14:43:56;;;;;;;5.10;4.80;;;;;;;;;;4882541;28;98957;-78
2023/04/10 14:46:27;;;;;;;5.05;4.65;;;;;;;;;;4889987;28;99141;-78